createdAt,value
2023-02-24T00:04:08.317Z,3.67
2023-02-24T00:10:00.131Z,3.78
2023-02-24T00:16:51.435Z,3.73
2023-02-24T00:22:42.076Z,3.66
2023-02-24T00:28:44.197Z,3.57
2023-02-24T00:35:23.245Z,3.45
2023-02-24T00:41:12.763Z,3.32
2023-02-24T00:47:12.261Z,3.20
2023-02-24T00:53:00.369Z,3.27
2023-02-24T01:00:32.368Z,3.24
2023-02-24T01:06:52.149Z,3.28
2023-02-24T01:12:54.145Z,3.27
2023-02-24T01:18:52.049Z,3.03
2023-02-24T01:24:50.025Z,2.82
2023-02-24T01:30:37.909Z,2.69
2023-02-24T01:36:26.395Z,2.85
2023-02-24T01:42:32.938Z,2.88
2023-02-24T01:54:30.722Z,2.80
2023-02-24T02:00:51.816Z,2.82
2023-02-24T02:06:43.458Z,2.97
2023-02-24T02:12:44.778Z,2.74
2023-02-24T02:19:24.178Z,2.55
2023-02-24T02:32:39.530Z,2.53
2023-02-24T02:38:35.961Z,2.30
2023-02-24T02:59:07.205Z,2.46
2023-02-24T03:05:03.047Z,2.37
2023-02-24T03:10:53.580Z,2.44
2023-02-24T03:16:50.611Z,2.31
2023-02-24T03:22:50.132Z,2.25
2023-02-24T03:35:53.476Z,2.13
2023-02-24T03:42:30.033Z,2.23
2023-02-24T03:49:20.155Z,2.26
2023-02-24T03:56:02.801Z,2.42
2023-02-24T04:10:35.564Z,2.33
2023-02-24T04:17:52.976Z,2.22
2023-02-24T04:25:23.527Z,2.26
2023-02-24T04:31:34.284Z,2.36
2023-02-24T04:37:23.362Z,2.56
2023-02-24T04:44:02.378Z,2.91
2023-02-24T04:56:32.570Z,2.61
2023-02-24T05:02:22.927Z,2.85
2023-02-24T05:08:10.788Z,3.18
2023-02-24T05:14:25.098Z,3.33
2023-02-24T05:33:25.065Z,3.40
2023-02-24T05:54:04.532Z,3.54
2023-02-24T06:00:33.887Z,3.82
2023-02-24T06:06:20.882Z,3.58
2023-02-24T06:12:08.157Z,3.75
2023-02-24T06:18:18.111Z,3.75
2023-02-24T06:24:37.608Z,3.86
2023-02-24T06:30:27.093Z,3.78
2023-02-24T06:36:35.296Z,3.84
2023-02-24T06:42:28.985Z,3.82
2023-02-24T06:49:28.641Z,4.00
2023-02-24T06:55:27.936Z,4.07
2023-02-24T07:01:34.899Z,3.70
2023-02-24T07:07:22.716Z,4.21
2023-02-24T07:21:34.639Z,4.21
2023-02-24T07:27:38.104Z,4.07
2023-02-24T07:33:28.156Z,4.03
2023-02-24T07:39:57.291Z,3.92
2023-02-24T07:45:46.802Z,3.92
2023-02-24T07:52:09.217Z,3.98
2023-02-24T07:58:23.567Z,4.14
2023-02-24T08:11:25.180Z,4.71
2023-02-24T08:17:14.116Z,4.50
2023-02-24T08:23:09.777Z,4.61
2023-02-24T08:28:59.237Z,5.13
2023-02-24T08:35:05.961Z,5.16
2023-02-24T08:41:13.465Z,5.17
2023-02-24T08:47:05.584Z,5.34
2023-02-24T08:53:28.745Z,5.52
2023-02-24T08:59:53.019Z,5.66
2023-02-24T09:05:57.369Z,5.82
2023-02-24T09:11:56.658Z,5.82
2023-02-24T09:17:58.560Z,6.14
2023-02-24T09:39:25.566Z,7.44
2023-02-24T09:45:59.145Z,7.44
2023-02-24T09:52:00.860Z,7.56
2023-02-24T09:58:43.078Z,7.49
2023-02-24T10:05:18.272Z,7.83
2023-02-24T10:27:32.376Z,8.17
2023-02-24T10:56:27.752Z,8.54
2023-02-24T11:16:18.248Z,8.70
2023-02-24T11:23:16.741Z,8.99
2023-02-24T11:37:32.413Z,9.52
2023-02-24T11:56:41.976Z,9.29
2023-02-24T12:03:22.782Z,9.72
2023-02-24T12:09:26.600Z,9.98
2023-02-24T12:15:43.781Z,9.72
2023-02-24T12:22:01.000Z,9.54
2023-02-24T12:28:37.492Z,9.26
2023-02-24T12:34:51.900Z,9.28
2023-02-24T12:41:44.931Z,9.27
2023-02-24T12:48:13.196Z,9.23
2023-02-24T12:54:54.985Z,8.94
2023-02-24T13:01:06.769Z,8.84
2023-02-24T13:07:35.929Z,9.34
2023-02-24T13:13:42.000Z,9.82
2023-02-24T13:19:30.438Z,10.03
2023-02-24T13:25:25.376Z,10.00
2023-02-24T13:36:37.822Z,9.29
2023-02-24T13:38:11.180Z,9.63
2023-02-24T13:44:04.476Z,9.53
2023-02-24T13:49:58.912Z,9.27
2023-02-24T13:56:12.245Z,9.20
2023-02-24T14:02:00.610Z,9.17
2023-02-24T14:07:50.227Z,9.45
2023-02-24T14:13:37.304Z,9.62
2023-02-24T14:19:25.814Z,9.81
2023-02-24T14:25:13.368Z,10.11
2023-02-24T14:37:09.377Z,9.73
2023-02-24T14:42:57.692Z,9.81
2023-02-24T14:48:45.398Z,9.80
2023-02-24T14:54:48.423Z,9.74
2023-02-24T15:07:31.101Z,10.00
2023-02-24T15:13:33.742Z,9.97
2023-02-24T15:19:33.393Z,10.08
2023-02-24T15:25:33.792Z,9.71
2023-02-24T15:31:29.632Z,9.55
2023-02-24T15:37:45.002Z,9.53
2023-02-24T15:44:40.877Z,9.73
2023-02-24T15:50:29.994Z,9.75
2023-02-24T15:56:18.926Z,9.72
2023-02-24T16:02:13.596Z,9.79
2023-02-24T16:08:00.902Z,9.80
2023-02-24T16:13:56.765Z,9.78
2023-02-24T16:19:44.308Z,10.00
2023-02-24T16:25:41.211Z,10.04
2023-02-24T16:31:36.406Z,10.00
2023-02-24T16:37:49.882Z,10.18
2023-02-24T16:43:39.219Z,9.67
2023-02-24T16:49:29.851Z,9.25
2023-02-24T16:55:20.402Z,9.13
2023-02-24T17:01:09.848Z,9.09
2023-02-24T17:07:01.388Z,8.86
2023-02-24T17:12:49.551Z,8.86
2023-02-24T17:18:39.755Z,8.33
2023-02-24T17:24:28.936Z,8.20
2023-02-24T17:30:25.409Z,8.04
2023-02-24T17:36:12.936Z,8.02
2023-02-24T17:42:11.941Z,8.05
2023-02-24T17:47:59.053Z,7.78
2023-02-24T17:53:45.894Z,7.70
2023-02-24T17:59:32.753Z,7.66
2023-02-24T18:05:20.399Z,7.52
2023-02-24T18:11:10.065Z,7.46
2023-02-24T18:16:57.096Z,7.57
2023-02-24T18:22:46.909Z,7.37
2023-02-24T18:28:34.436Z,7.36
2023-02-24T18:34:21.753Z,7.26
2023-02-24T18:40:20.163Z,7.29
2023-02-24T18:46:13.640Z,7.05
2023-02-24T18:52:01.796Z,6.92
2023-02-24T18:57:48.821Z,6.86
2023-02-24T19:03:35.846Z,6.82
2023-02-24T19:09:24.130Z,6.93
2023-02-24T19:15:11.867Z,6.61
2023-02-24T19:21:01.399Z,6.58
2023-02-24T19:26:48.446Z,6.55
2023-02-24T19:32:35.349Z,6.43
2023-02-24T19:38:22.363Z,6.48
2023-02-24T19:44:10.376Z,6.27
2023-02-24T19:49:57.338Z,6.24
2023-02-24T19:55:49.318Z,6.39
2023-02-24T20:01:36.369Z,6.28
2023-02-24T20:07:24.502Z,6.31
2023-02-24T20:13:18.318Z,6.23
2023-02-24T20:19:06.571Z,6.09
2023-02-24T20:24:53.665Z,6.27
2023-02-24T20:30:43.934Z,6.01
2023-02-24T20:36:31.061Z,6.06
2023-02-24T20:42:20.894Z,6.20
2023-02-24T20:48:09.246Z,6.01
2023-02-24T20:53:58.497Z,5.89
2023-02-24T21:00:01.483Z,5.90
2023-02-24T21:06:04.485Z,5.99
2023-02-24T21:12:21.378Z,6.17
2023-02-24T21:18:27.109Z,6.05
2023-02-24T21:24:15.620Z,5.99
2023-02-24T21:30:36.034Z,5.97
2023-02-24T21:37:12.535Z,5.79
2023-02-24T21:43:42.227Z,5.65
2023-02-24T21:50:07.184Z,5.59
2023-02-24T21:56:16.559Z,5.49
2023-02-24T22:02:04.894Z,5.58
2023-02-24T22:07:53.644Z,5.55
2023-02-24T22:14:03.297Z,5.47
2023-02-24T22:19:50.062Z,5.45
2023-02-24T22:25:36.911Z,5.33
2023-02-24T22:31:26.578Z,5.32
2023-02-24T22:37:20.625Z,5.29
2023-02-24T22:43:20.781Z,5.27
2023-02-24T22:49:43.743Z,5.24
2023-02-24T23:04:09.019Z,5.21
2023-02-24T23:10:21.563Z,4.92
2023-02-24T23:23:28.087Z,4.83
2023-02-24T23:29:58.240Z,4.82
2023-02-24T23:35:53.646Z,5.01
2023-02-24T23:48:14.725Z,4.82
2023-02-24T23:54:01.961Z,4.74
